Time;durP1;ratioP1;P1;durP2;ratioP2;P2;SDS_P1;SDS_P2;PMS_P1;PMS_P2;Temp;Humidity;BMP_temperature;BMP_pressure;BME280_temperature;BME280_humidity;BME280_pressure;Samples;Min_cycle;Max_cycle;Signal;HPM_P1;HPM_P2
2023/04/22 00:01:38;;;;;;;15.48;12.70;;;;;;;9.11;100.00;100147.84;6154521;23;20405;-77
2023/04/22 00:04:07;;;;;;;14.95;12.15;;;;;;;9.04;100.00;100146.84;6154343;23;20093;-78
2023/04/22 00:06:34;;;;;;;19.92;13.63;;;;;;;8.92;100.00;100144.53;6156631;23;20029;-77
2023/04/22 00:09:01;;;;;;;17.83;12.90;;;;;;;8.84;100.00;100146.28;6154888;23;20105;-77
2023/04/22 00:11:27;;;;;;;20.15;14.77;;;;;;;8.65;100.00;100144.72;6154696;23;20409;-78
2023/04/22 00:13:54;;;;;;;17.90;14.55;;;;;;;8.70;100.00;100145.09;6159698;23;20069;-78
2023/04/22 00:16:20;;;;;;;17.15;14.52;;;;;;;8.72;100.00;100143.13;6164049;23;20017;-80
2023/04/22 00:18:47;;;;;;;18.90;15.15;;;;;;;8.71;100.00;100154.53;6162256;23;20045;-79
2023/04/22 00:21:15;;;;;;;20.25;16.60;;;;;;;8.60;100.00;100145.19;6158392;23;20412;-78
2023/04/22 00:23:44;;;;;;;22.73;17.15;;;;;;;8.58;100.00;100146.31;6155431;23;20023;-78
2023/04/22 00:26:10;;;;;;;22.63;17.13;;;;;;;8.55;100.00;100142.22;6157395;23;20031;-78
2023/04/22 00:28:37;;;;;;;24.60;18.63;;;;;;;8.53;100.00;100156.38;6157506;23;20060;-79
2023/04/22 00:31:04;;;;;;;22.23;17.95;;;;;;;8.53;100.00;100157.22;6155601;23;20112;-77
2023/04/22 00:33:31;;;;;;;23.35;17.33;;;;;;;8.50;100.00;100154.13;6156650;23;20025;-76
2023/04/22 00:35:57;;;;;;;26.17;17.92;;;;;;;8.49;100.00;100152.47;6154755;23;20100;-79
2023/04/22 00:38:25;;;;;;;24.83;18.08;;;;;;;8.49;100.00;100150.69;6154760;23;20053;-77
2023/04/22 00:40:52;;;;;;;24.98;18.63;;;;;;;8.61;100.00;100151.22;6154825;23;20061;-77
2023/04/22 00:43:19;;;;;;;23.77;18.02;;;;;;;8.70;100.00;100145.09;6154369;23;20045;-76
2023/04/22 00:45:47;;;;;;;22.60;17.10;;;;;;;8.72;100.00;100142.31;6154426;23;20036;-76
2023/04/22 00:48:14;;;;;;;22.15;16.10;;;;;;;8.73;100.00;100144.78;6154260;23;20060;-77
2023/04/22 00:50:41;;;;;;;20.92;15.55;;;;;;;8.66;100.00;100146.38;6153918;23;20498;-77
2023/04/22 00:53:07;;;;;;;18.30;15.63;;;;;;;8.73;100.00;100144.78;6154281;23;20446;-77
2023/04/22 00:55:35;;;;;;;21.80;16.25;;;;;;;8.75;100.00;100149.84;6154316;23;20413;-76
2023/04/22 00:58:03;;;;;;;19.85;15.20;;;;;;;8.72;100.00;100148.34;6156688;23;20060;-77
2023/04/22 01:00:30;;;;;;;19.92;15.00;;;;;;;8.58;100.00;100154.13;6157791;23;20100;-77
2023/04/22 01:02:57;;;;;;;25.23;15.95;;;;;;;8.64;100.00;100153.53;6157788;23;20104;-77
2023/04/22 01:05:24;;;;;;;19.20;14.68;;;;;;;8.47;100.00;100147.41;6157510;23;20458;-78
2023/04/22 01:07:51;;;;;;;19.30;14.80;;;;;;;8.47;100.00;100154.44;6156931;23;20071;-77
2023/04/22 01:10:18;;;;;;;21.30;15.65;;;;;;;8.37;100.00;100158.91;6157949;23;20057;-79
2023/04/22 01:12:46;;;;;;;22.63;15.57;;;;;;;8.45;100.00;100151.97;6157740;23;20033;-75
2023/04/22 01:15:13;;;;;;;23.73;17.40;;;;;;;8.40;100.00;100148.19;6162192;23;20052;-76
2023/04/22 01:17:40;;;;;;;23.08;16.40;;;;;;;8.46;100.00;100152.78;6168194;23;20036;-77
2023/04/22 01:20:09;;;;;;;21.63;15.85;;;;;;;8.37;100.00;100154.53;6169281;23;20037;-76
2023/04/22 01:22:40;;;;;;;20.33;16.60;;;;;;;8.31;100.00;100153.31;6166586;23;20067;-77
2023/04/22 01:25:09;;;;;;;23.17;17.15;;;;;;;8.30;100.00;100164.72;6166550;23;20025;-77
2023/04/22 01:27:36;;;;;;;25.05;16.70;;;;;;;8.35;100.00;100155.66;6163220;23;20285;-77
2023/04/22 01:30:03;;;;;;;22.20;17.35;;;;;;;8.37;100.00;100161.53;6159292;23;20030;-78
2023/04/22 01:32:31;;;;;;;24.98;17.20;;;;;;;8.34;100.00;100154.00;6158072;23;20115;-78
2023/04/22 01:34:57;;;;;;;24.75;18.50;;;;;;;8.37;100.00;100159.75;6157865;23;20414;-77
2023/04/22 01:37:24;;;;;;;24.80;18.15;;;;;;;8.30;100.00;100159.50;6158141;23;20100;-78
2023/04/22 01:39:51;;;;;;;23.70;16.90;;;;;;;8.29;100.00;100157.84;6162476;23;20067;-79
2023/04/22 01:42:19;;;;;;;27.80;17.90;;;;;;;8.31;100.00;100165.53;6164940;23;20025;-79
2023/04/22 01:44:46;;;;;;;28.10;19.55;;;;;;;8.33;100.00;100158.41;6163817;23;20048;-79
2023/04/22 01:47:13;;;;;;;25.10;18.45;;;;;;;8.40;100.00;100167.25;6162697;23;20484;-77
2023/04/22 01:49:40;;;;;;;29.65;20.25;;;;;;;8.42;100.00;100167.09;6162114;23;20055;-78
2023/04/22 01:52:06;;;;;;;33.45;20.35;;;;;;;8.46;100.00;100158.81;6161669;23;20056;-78
2023/04/22 01:54:33;;;;;;;25.83;19.65;;;;;;;8.52;100.00;100157.38;6160400;23;20092;-80
2023/04/22 01:57:00;;;;;;;28.65;18.75;;;;;;;8.61;100.00;100161.66;6160805;23;20104;-78
2023/04/22 01:59:28;;;;;;;28.20;20.02;;;;;;;8.57;100.00;100160.31;6160860;23;20021;-78
2023/04/22 02:01:55;;;;;;;27.85;20.42;;;;;;;8.58;100.00;100165.38;6159535;23;20210;-79
2023/04/22 02:04:21;;;;;;;27.83;19.85;;;;;;;8.62;100.00;100152.88;6158553;23;20155;-76
2023/04/22 02:06:48;;;;;;;24.85;18.88;;;;;;;8.68;100.00;100157.47;6157199;23;20100;-78
2023/04/22 02:09:15;;;;;;;25.23;18.95;;;;;;;8.65;100.00;100147.34;6156760;23;20072;-75
2023/04/22 02:11:41;;;;;;;26.33;19.40;;;;;;;8.72;100.00;100147.53;6155569;23;20053;-77
2023/04/22 02:14:08;;;;;;;28.92;20.40;;;;;;;8.73;100.00;100142.16;6157519;23;20052;-79
2023/04/22 02:16:36;;;;;;;29.15;20.13;;;;;;;8.68;100.00;100147.03;6156189;23;20025;-78
2023/04/22 02:19:03;;;;;;;29.00;19.98;;;;;;;8.72;100.00;100135.31;6157561;23;20048;-79
2023/04/22 02:21:31;;;;;;;28.60;19.33;;;;;;;8.74;100.00;100135.97;6159556;23;20078;-78
2023/04/22 02:23:57;;;;;;;30.38;20.13;;;;;;;8.66;100.00;100130.72;6159891;23;20075;-78
2023/04/22 02:26:25;;;;;;;25.65;18.85;;;;;;;8.69;100.00;100132.19;6160619;23;20497;-77
2023/04/22 02:28:51;;;;;;;23.92;17.63;;;;;;;8.65;100.00;100123.88;6162822;23;20022;-78
2023/04/22 02:31:18;;;;;;;24.92;18.50;;;;;;;8.58;100.00;100128.06;6162899;23;20057;-78
2023/04/22 02:33:46;;;;;;;24.05;18.33;;;;;;;8.57;100.00;100131.63;6163290;23;20021;-78
2023/04/22 02:36:12;;;;;;;22.52;17.70;;;;;;;8.68;100.00;100125.34;6162686;23;20049;-78
2023/04/22 02:38:39;;;;;;;24.90;18.10;;;;;;;8.73;100.00;100133.53;6161876;23;20057;-79
2023/04/22 02:41:06;;;;;;;25.52;17.92;;;;;;;8.82;100.00;100141.22;6163039;23;20026;-80
2023/04/22 02:43:32;;;;;;;22.77;17.50;;;;;;;8.87;100.00;100136.38;6163607;23;20029;-78
2023/04/22 02:45:59;;;;;;;24.75;17.30;;;;;;;8.94;100.00;100139.16;6162736;23;20052;-79
2023/04/22 02:48:25;;;;;;;24.13;17.67;;;;;;;8.73;100.00;100133.53;6164430;23;20063;-78
2023/04/22 02:50:53;;;;;;;24.83;17.60;;;;;;;8.78;100.00;100129.47;6164508;23;20053;-79
2023/04/22 02:53:20;;;;;;;24.08;18.20;;;;;;;8.70;100.00;100126.81;6164398;23;20025;-80
2023/04/22 02:55:46;;;;;;;23.63;18.00;;;;;;;8.69;100.00;100126.97;6165283;23;20025;-79
2023/04/22 02:58:13;;;;;;;22.52;17.23;;;;;;;8.71;100.00;100125.84;6163607;23;20048;-79
2023/04/22 03:00:40;;;;;;;24.67;17.15;;;;;;;8.73;100.00;100129.13;6163678;23;20418;-80
2023/04/22 03:03:06;;;;;;;23.27;16.83;;;;;;;8.65;100.00;100123.88;6164502;23;20025;-81
2023/04/22 03:05:33;;;;;;;24.50;17.95;;;;;;;8.65;100.00;100126.47;6160486;23;20028;-78
2023/04/22 03:08:01;;;;;;;21.17;16.88;;;;;;;8.72;100.00;100122.28;6159878;23;20064;-77
2023/04/22 03:10:28;;;;;;;21.85;15.77;;;;;;;8.80;100.00;100109.25;6160320;23;20055;-78
2023/04/22 03:12:54;;;;;;;21.50;15.77;;;;;;;8.72;100.00;100113.63;6159382;23;20021;-80
2023/04/22 03:15:21;;;;;;;25.95;16.73;;;;;;;8.87;100.00;100115.50;6158498;23;20561;-78
2023/04/22 03:17:48;;;;;;;21.88;16.42;;;;;;;8.76;100.00;100107.94;6158966;23;20021;-79
2023/04/22 03:20:14;;;;;;;22.20;17.00;;;;;;;8.84;100.00;100113.19;6158691;23;20037;-80
2023/04/22 03:22:41;;;;;;;22.58;16.85;;;;;;;8.90;100.00;100104.75;6159483;23;20032;-77
2023/04/22 03:25:11;;;;;;;23.80;17.88;;;;;;;8.98;100.00;100104.75;6159481;23;20026;-79
2023/04/22 03:27:37;;;;;;;22.67;17.00;;;;;;;9.06;100.00;100108.34;6158472;23;20052;-78
2023/04/22 03:30:05;;;;;;;20.02;16.23;;;;;;;9.10;100.00;100099.22;6159484;23;20056;-78
2023/04/22 03:32:32;;;;;;;22.08;16.20;;;;;;;9.12;100.00;100100.72;6159640;23;20068;-79
2023/04/22 03:34:58;;;;;;;23.58;15.55;;;;;;;9.15;100.00;100100.41;6159469;23;20025;-79
2023/04/22 03:37:26;;;;;;;21.17;15.05;;;;;;;9.16;100.00;100093.38;6160250;23;20052;-79
2023/04/22 03:39:52;;;;;;;21.88;15.38;;;;;;;9.16;100.00;100102.03;6159911;23;20073;-77
2023/04/22 03:42:20;;;;;;;18.20;14.52;;;;;;;9.16;100.00;100104.63;6159391;23;20084;-79
2023/04/22 03:44:47;;;;;;;19.42;14.50;;;;;;;9.18;100.00;100097.47;6159324;23;20052;-80
2023/04/22 03:47:13;;;;;;;19.05;13.98;;;;;;;9.19;100.00;100095.69;6161914;23;20062;-79
2023/04/22 03:49:40;;;;;;;21.58;15.45;;;;;;;9.14;100.00;100087.50;6160599;23;20037;-79
2023/04/22 03:52:07;;;;;;;22.85;14.93;;;;;;;9.14;100.00;100080.50;6160973;23;20053;-79
2023/04/22 03:54:34;;;;;;;19.45;14.48;;;;;;;9.10;100.00;100083.56;6161499;23;20610;-79
2023/04/22 03:57:01;;;;;;;18.83;15.00;;;;;;;9.06;100.00;100077.84;6157924;23;20032;-79
2023/04/22 03:59:29;;;;;;;19.15;15.10;;;;;;;9.06;100.00;100071.81;6158171;23;20509;-79
2023/04/22 04:01:56;;;;;;;19.20;14.73;;;;;;;8.99;100.00;100063.81;6158750;23;20021;-77
2023/04/22 04:04:23;;;;;;;20.23;15.23;;;;;;;9.03;100.00;100069.53;6159044;23;20049;-79
2023/04/22 04:06:50;;;;;;;19.80;14.30;;;;;;;9.04;100.00;100063.34;6157063;23;20061;-77
2023/04/22 04:09:17;;;;;;;22.30;15.68;;;;;;;9.04;100.00;100063.34;6157557;23;20053;-78
2023/04/22 04:11:44;;;;;;;18.52;14.52;;;;;;;8.95;100.00;100063.34;6156826;23;20026;-77
2023/04/22 04:14:10;;;;;;;17.35;13.93;;;;;;;8.91;100.00;100059.41;6157191;23;20098;-78
2023/04/22 04:16:38;;;;;;;19.42;14.32;;;;;;;8.96;100.00;100072.81;6157401;23;20501;-79
2023/04/22 04:19:06;;;;;;;16.88;13.52;;;;;;;9.03;100.00;100069.53;6161801;23;20064;-79
2023/04/22 04:21:33;;;;;;;19.58;14.23;;;;;;;9.03;100.00;100064.31;6159711;23;20029;-78
2023/04/22 04:23:59;;;;;;;18.35;14.18;;;;;;;9.11;100.00;100069.56;6159393;23;20021;-78
2023/04/22 04:26:27;;;;;;;19.23;13.70;;;;;;;9.09;100.00;100058.44;6161851;23;20049;-79
2023/04/22 04:28:54;;;;;;;18.25;13.93;;;;;;;8.98;100.00;100057.78;6174754;23;20049;-79
2023/04/22 04:31:21;;;;;;;17.73;12.73;;;;;;;9.03;100.00;100057.28;6172497;23;20045;-79
2023/04/22 04:33:49;;;;;;;17.13;13.65;;;;;;;9.11;100.00;100059.09;6161773;23;20032;-77
2023/04/22 04:36:16;;;;;;;17.05;13.98;;;;;;;9.07;100.00;100058.63;6159645;23;20032;-78
2023/04/22 04:38:42;;;;;;;19.77;14.30;;;;;;;9.10;100.00;100058.28;6161340;23;20030;-77
2023/04/22 04:41:09;;;;;;;17.55;12.95;;;;;;;9.13;100.00;100062.38;6159339;23;20411;-77
2023/04/22 04:43:36;;;;;;;16.60;13.27;;;;;;;9.10;100.00;100058.28;6157985;23;20022;-79
2023/04/22 04:46:03;;;;;;;16.10;12.77;;;;;;;9.10;100.00;100042.63;6157536;23;20025;-78
2023/04/22 04:48:29;;;;;;;15.93;12.35;;;;;;;9.19;100.00;100046.06;6159193;23;20064;-78
2023/04/22 04:50:57;;;;;;;16.20;12.02;;;;;;;9.19;100.00;100040.84;6158671;23;20030;-77
2023/04/22 04:53:24;;;;;;;13.90;11.07;;;;;;;9.13;100.00;100041.50;6160017;23;20355;-78
2023/04/22 04:55:50;;;;;;;14.77;11.48;;;;;;;9.09;100.00;100027.94;6159574;23;20113;-79
2023/04/22 04:58:17;;;;;;;16.02;12.93;;;;;;;9.10;100.00;100029.59;6158716;23;20060;-79
2023/04/22 05:00:44;;;;;;;17.75;11.35;;;;;;;9.10;100.00;100020.94;6162113;23;20376;-77
2023/04/22 05:03:10;;;;;;;14.45;11.88;;;;;;;9.13;100.00;100018.00;6160169;23;20096;-77
2023/04/22 05:05:37;;;;;;;13.98;11.23;;;;;;;9.21;100.00;100025.84;6159472;23;20032;-79
2023/04/22 05:08:05;;;;;;;15.10;11.40;;;;;;;9.34;100.00;100023.59;6159948;23;20509;-77
2023/04/22 05:10:32;;;;;;;13.45;11.10;;;;;;;9.45;100.00;100031.06;6160972;23;20029;-79
2023/04/22 05:12:58;;;;;;;12.90;10.93;;;;;;;9.53;100.00;100028.47;6158963;23;20518;-78
2023/04/22 05:15:25;;;;;;;12.48;10.20;;;;;;;9.63;100.00;100029.13;6159040;23;20029;-78
2023/04/22 05:17:52;;;;;;;12.10;10.38;;;;;;;9.71;100.00;100020.47;6158830;23;20202;-78
2023/04/22 05:20:18;;;;;;;12.55;9.75;;;;;;;9.83;100.00;100026.16;6158581;23;20482;-77
2023/04/22 05:22:45;;;;;;;12.80;8.43;;;;;;;9.88;100.00;100023.88;6159443;23;20063;-77
2023/04/22 05:25:13;;;;;;;11.15;9.07;;;;;;;10.04;100.00;100017.78;6159096;23;20053;-77
2023/04/22 05:27:40;;;;;;;9.45;8.43;;;;;;;10.14;100.00;100021.84;6159040;23;20083;-77
2023/04/22 05:30:08;;;;;;;10.93;8.48;;;;;;;10.19;100.00;100019.56;6157640;23;20026;-78
2023/04/22 05:32:35;;;;;;;11.52;8.07;;;;;;;10.17;100.00;100016.28;6157779;23;20053;-77
2023/04/22 05:35:02;;;;;;;10.50;8.13;;;;;;;10.29;100.00;100014.97;6156655;23;20078;-77
2023/04/22 05:37:28;;;;;;;10.55;8.13;;;;;;;10.54;100.00;100012.22;6157491;23;20410;-79
2023/04/22 05:39:56;;;;;;;10.38;8.48;;;;;;;10.57;100.00;100011.88;6158911;23;20061;-79
2023/04/22 05:42:24;;;;;;;10.48;7.55;;;;;;;10.59;100.00;100010.72;6158795;23;20085;-78
2023/04/22 05:44:51;;;;;;;8.80;7.45;;;;;;;10.54;100.00;100017.47;6159688;23;20029;-77
2023/04/22 05:47:17;;;;;;;8.52;7.57;;;;;;;10.58;100.00;100009.09;6158200;23;20399;-78
2023/04/22 05:49:44;;;;;;;10.25;7.68;;;;;;;10.53;100.00;100018.44;6159593;23;20060;-78
2023/04/22 05:52:11;;;;;;;10.60;8.30;;;;;;;10.53;100.00;100005.38;6158693;23;20049;-78
2023/04/22 05:54:37;;;;;;;9.35;7.93;;;;;;;10.60;100.00;100020.22;6159513;23;20096;-77
2023/04/22 05:57:04;;;;;;;10.25;7.88;;;;;;;10.72;100.00;100020.66;6161333;23;20358;-79
2023/04/22 05:59:32;;;;;;;9.40;7.65;;;;;;;10.76;100.00;100015.91;6160733;23;20064;-78
2023/04/22 06:01:59;;;;;;;10.10;8.05;;;;;;;10.80;100.00;100011.94;6158493;23;20088;-78
2023/04/22 06:04:25;;;;;;;10.05;7.60;;;;;;;10.79;100.00;100026.84;6156722;23;20504;-77
2023/04/22 06:06:53;;;;;;;10.40;8.25;;;;;;;10.85;100.00;100026.16;6159041;23;20029;-78
2023/04/22 06:09:20;;;;;;;9.18;7.38;;;;;;;10.97;100.00;100023.94;6164604;23;20350;-79
2023/04/22 06:11:47;;;;;;;9.77;7.38;;;;;;;11.15;100.00;100021.84;6161427;23;20029;-78
2023/04/22 06:14:14;;;;;;;9.68;7.50;;;;;;;11.33;100.00;100029.44;6162122;23;20032;-78
2023/04/22 06:16:42;;;;;;;10.20;7.30;;;;;;;11.60;100.00;100028.88;6162580;23;20025;-79
2023/04/22 06:19:08;;;;;;;9.48;7.03;;;;;;;11.60;100.00;100023.63;6167320;23;20069;-79
2023/04/22 06:21:38;;;;;;;8.85;7.90;;;;;;;11.73;100.00;100030.06;6167434;23;20021;-80
2023/04/22 06:24:05;;;;;;;8.68;7.68;;;;;;;12.06;100.00;100010.44;6166913;23;20548;-79
2023/04/22 06:26:35;;;;;;;9.77;7.05;;;;;;;13.70;96.82;100030.81;6165979;23;20400;-77
2023/04/22 06:29:04;;;;;;;9.10;6.35;;;;;;;15.13;91.95;100028.25;6165856;23;20025;-79
2023/04/22 06:31:30;;;;;;;8.05;6.05;;;;;;;15.49;86.43;100012.06;6164406;23;20021;-79
2023/04/22 06:33:59;;;;;;;7.68;5.90;;;;;;;15.93;83.80;100003.53;6165106;23;20068;-78
2023/04/22 06:36:26;;;;;;;6.95;6.10;;;;;;;16.29;80.37;99991.66;6164192;23;20017;-77
2023/04/22 06:38:53;;;;;;;7.38;6.32;;;;;;;16.54;79.58;99993.38;6164406;23;20029;-79
2023/04/22 06:41:21;;;;;;;7.38;5.90;;;;;;;16.73;77.99;99993.53;6159707;23;20037;-79
2023/04/22 06:43:48;;;;;;;8.57;5.85;;;;;;;16.51;79.32;99995.66;6160820;23;20029;-79
2023/04/22 06:46:15;;;;;;;7.13;6.00;;;;;;;15.89;78.83;99991.78;6160660;23;20018;-78
2023/04/22 06:48:42;;;;;;;9.15;6.10;;;;;;;15.51;80.92;99992.41;6160875;23;20057;-78
2023/04/22 06:51:10;;;;;;;6.82;6.10;;;;;;;14.96;82.44;100004.13;6160114;23;20025;-79
2023/04/22 06:53:37;;;;;;;8.23;5.95;;;;;;;14.74;84.39;100008.69;6160344;23;20033;-77
2023/04/22 06:56:04;;;;;;;8.05;6.90;;;;;;;13.95;86.24;99992.53;6159388;23;20093;-78
2023/04/22 06:58:30;;;;;;;8.45;6.65;;;;;;;13.78;87.34;99985.94;6160176;23;20026;-77
2023/04/22 07:00:57;;;;;;;11.07;7.25;;;;;;;13.41;89.12;99994.97;6157725;23;20101;-78
2023/04/22 07:03:24;;;;;;;8.32;7.50;;;;;;;13.46;90.32;99995.22;6158659;23;20053;-79
2023/04/22 07:05:50;;;;;;;8.57;7.15;;;;;;;14.17;90.09;99996.72;6158916;23;20054;-78
2023/04/22 07:08:18;;;;;;;7.88;6.93;;;;;;;14.58;88.58;99994.09;6159108;23;20033;-78
2023/04/22 07:10:45;;;;;;;7.82;6.40;;;;;;;14.74;87.20;99997.34;6165358;23;20027;-78
2023/04/22 07:13:12;;;;;;;9.70;6.75;;;;;;;15.21;85.35;99993.78;6172336;23;20076;-77
2023/04/22 07:15:39;;;;;;;7.47;6.65;;;;;;;15.50;84.16;99982.88;6173025;23;20059;-79
2023/04/22 07:18:05;;;;;;;9.75;6.90;;;;;;;16.62;82.64;99975.66;6173475;23;20395;-79
2023/04/22 07:20:32;;;;;;;6.95;5.82;;;;;;;18.13;78.09;99973.66;6167334;23;20036;-79
2023/04/22 07:22:59;;;;;;;6.80;5.97;;;;;;;18.82;74.45;99967.94;6176066;23;20013;-80
2023/04/22 07:25:27;;;;;;;6.40;5.80;;;;;;;17.96;72.24;99957.56;6165110;23;20052;-78
2023/04/22 07:27:53;;;;;;;6.97;6.20;;;;;;;17.96;73.81;99976.09;6157581;23;20026;-79
2023/04/22 07:30:20;;;;;;;7.57;5.70;;;;;;;18.64;72.61;99973.25;6158331;23;20025;-79
2023/04/22 07:32:47;;;;;;;7.45;5.68;;;;;;;20.05;70.20;99963.63;6159873;23;20049;-79
2023/04/22 07:35:16;;;;;;;7.78;5.50;;;;;;;20.00;68.21;99959.03;6159529;23;20017;-78
2023/04/22 07:37:43;;;;;;;6.47;5.35;;;;;;;19.81;66.36;99950.41;6159641;23;20025;-78
2023/04/22 07:42:40;;;;;;;6.82;5.40;;;;;;;17.78;69.38;99942.50;6152955;23;20014;-81
2023/04/22 07:45:07;;;;;;;6.78;5.43;;;;;;;18.14;69.66;99960.22;6155696;23;20032;-79
2023/04/22 07:47:34;;;;;;;10.77;5.63;;;;;;;18.14;70.22;99952.25;6153935;23;20449;-78
2023/04/22 07:50:00;;;;;;;7.65;5.40;;;;;;;17.33;71.16;99956.94;6139990;23;20058;-78
2023/04/22 07:52:28;;;;;;;8.90;5.40;;;;;;;17.56;71.76;99957.94;6123809;23;20096;-78
2023/04/22 07:54:55;;;;;;;6.45;5.18;;;;;;;18.81;69.75;99954.91;6123540;23;20057;-77
2023/04/22 07:57:22;;;;;;;6.35;5.63;;;;;;;17.98;69.65;99950.19;6123313;23;20416;-78
2023/04/22 07:59:51;;;;;;;6.72;5.55;;;;;;;17.82;70.81;99966.69;6122177;23;20090;-77
2023/04/22 08:02:18;;;;;;;7.13;5.32;;;;;;;18.06;69.65;99947.25;6123213;23;20049;-79
2023/04/22 08:04:44;;;;;;;8.45;5.68;;;;;;;18.33;69.52;99939.00;6127824;23;20049;-79
2023/04/22 08:07:11;;;;;;;8.60;5.85;;;;;;;17.54;70.21;99941.47;6126968;23;20069;-78
2023/04/22 08:09:38;;;;;;;7.40;5.70;;;;;;;17.59;70.98;99944.25;6128641;23;20026;-79
2023/04/22 08:12:04;;;;;;;7.97;5.15;;;;;;;18.15;70.36;99938.00;6128948;23;20504;-79
2023/04/22 08:14:31;;;;;;;7.63;5.38;;;;;;;18.27;70.76;99935.41;6129146;23;20122;-78
2023/04/22 08:16:59;;;;;;;10.32;5.60;;;;;;;18.70;68.82;99927.31;6129051;23;20057;-76
2023/04/22 08:19:25;;;;;;;6.43;5.10;;;;;;;19.28;67.09;99908.06;6126731;23;20099;-79
2023/04/22 08:21:52;;;;;;;8.07;4.82;;;;;;;18.75;67.52;99908.91;6125157;23;20037;-79
2023/04/22 08:24:19;;;;;;;7.00;4.70;;;;;;;18.98;66.97;99896.72;6127633;23;20054;-80
2023/04/22 08:26:45;;;;;;;9.30;5.10;;;;;;;19.63;66.82;99915.22;6128053;23;20022;-80
2023/04/22 08:29:13;;;;;;;9.80;4.80;;;;;;;19.83;66.09;99899.72;6126246;23;20053;-80
2023/04/22 08:31:40;;;;;;;5.53;4.80;;;;;;;19.09;66.89;99903.88;6127221;23;20093;-79
2023/04/22 08:34:08;;;;;;;7.43;4.63;;;;;;;18.87;67.51;99895.69;6127198;23;20026;-79
2023/04/22 08:36:34;;;;;;;6.45;4.72;;;;;;;18.96;68.21;99904.09;6127459;23;20060;-80
2023/04/22 08:39:01;;;;;;;5.65;4.75;;;;;;;18.60;68.40;99905.84;6131977;23;20053;-78
2023/04/22 08:41:28;;;;;;;6.25;4.80;;;;;;;18.71;66.79;99902.44;6130008;23;20033;-79
2023/04/22 08:43:56;;;;;;;7.88;4.50;;;;;;;18.72;68.15;99901.41;6131741;23;20056;-79
2023/04/22 08:46:24;;;;;;;6.40;4.80;;;;;;;19.33;67.68;99900.22;6120947;23;20058;-78
2023/04/22 08:48:54;;;;;;;6.65;4.40;;;;;;;19.21;67.32;99883.47;6122936;23;20057;-79
2023/04/22 08:51:22;;;;;;;6.43;4.43;;;;;;;18.97;66.96;99893.25;6121834;23;20100;-79
2023/04/22 08:53:49;;;;;;;6.90;4.72;;;;;;;19.37;65.86;99892.59;6124926;23;20025;-79
2023/04/22 08:56:21;;;;;;;4.65;4.15;;;;;;;20.00;65.92;99892.63;6126648;23;20029;-80
2023/04/22 08:58:48;;;;;;;7.63;4.28;;;;;;;20.61;63.75;99885.81;6129148;23;20065;-79
2023/04/22 09:01:16;;;;;;;5.85;4.28;;;;;;;20.01;62.93;99865.03;6126926;23;20032;-80
2023/04/22 09:03:44;;;;;;;7.57;4.32;;;;;;;20.51;62.83;99875.00;6129593;23;20026;-80
2023/04/22 09:06:11;;;;;;;6.38;4.57;;;;;;;20.53;61.80;99862.28;6129802;23;20021;-80
2023/04/22 09:08:40;;;;;;;5.75;4.78;;;;;;;20.20;62.57;99868.31;6130163;23;20061;-80
2023/04/22 09:11:06;;;;;;;7.35;4.07;;;;;;;20.62;61.17;99857.41;6128244;23;20030;-81
2023/04/22 09:13:33;;;;;;;6.13;4.00;;;;;;;20.61;62.58;99871.72;6129806;23;20057;-80
2023/04/22 09:16:00;;;;;;;8.85;4.20;;;;;;;20.73;61.25;99857.34;6128088;23;20021;-81
2023/04/22 09:18:26;;;;;;;5.28;3.75;;;;;;;20.55;61.79;99860.19;6128102;23;20026;-79
2023/04/22 09:20:56;;;;;;;4.90;3.90;;;;;;;21.28;59.92;99856.56;6128580;23;20026;-80
2023/04/22 09:23:23;;;;;;;6.72;4.28;;;;;;;20.68;60.70;99865.22;6129930;23;20439;-78
2023/04/22 09:25:51;;;;;;;6.35;4.15;;;;;;;21.44;60.77;99861.06;6123740;23;20037;-80
2023/04/22 09:28:23;;;;;;;6.53;3.88;;;;;;;21.42;58.54;99860.50;6128456;23;20498;-80
2023/04/22 09:30:53;;;;;;;6.82;3.80;;;;;;;21.65;59.04;99848.84;6129286;23;20494;-81
2023/04/22 09:33:28;;;;;;;6.13;4.00;;;;;;;21.20;60.70;99857.78;6129429;23;20022;-79
2023/04/22 09:36:09;;;;;;;6.95;4.15;;;;;;;21.24;59.06;99858.13;6128592;23;20101;-79
2023/04/22 09:38:36;;;;;;;4.88;3.83;;;;;;;20.90;59.22;99852.00;6129441;23;20353;-80
2023/04/22 09:41:10;;;;;;;5.28;4.22;;;;;;;20.92;59.75;99841.13;6127506;23;20276;-80
2023/04/22 09:43:50;;;;;;;6.03;4.20;;;;;;;20.82;59.47;99860.38;6129396;23;20178;-80
2023/04/22 09:46:22;;;;;;;7.70;4.13;;;;;;;20.76;59.95;99856.84;6128150;23;20474;-81
2023/04/22 09:48:54;;;;;;;6.23;3.90;;;;;;;20.63;60.11;99857.16;6131766;23;20029;-81
2023/04/22 09:51:26;;;;;;;8.13;4.15;;;;;;;20.82;59.70;99853.19;6130814;23;20025;-80
2023/04/22 09:54:23;;;;;;;6.65;4.03;;;;;;;20.82;59.23;99831.94;6131369;23;20045;-81
2023/04/22 09:56:53;;;;;;;4.90;3.92;;;;;;;21.64;58.73;99841.09;6128188;23;20018;-79
2023/04/22 09:59:21;;;;;;;7.03;4.20;;;;;;;22.24;59.20;99862.28;6128495;23;20079;-80
2023/04/22 10:01:49;;;;;;;5.97;4.32;;;;;;;22.43;57.77;99860.09;6128038;23;20018;-79
2023/04/22 10:04:20;;;;;;;7.13;4.05;;;;;;;21.82;57.37;99864.72;6128764;23;20064;-80
2023/04/22 10:07:11;;;;;;;10.60;4.75;;;;;;;21.91;58.04;99881.88;6131796;23;20069;-81
2023/04/22 10:09:42;;;;;;;6.07;3.97;;;;;;;22.29;58.28;99873.00;6148449;23;20022;-82
2023/04/22 10:12:12;;;;;;;9.83;4.07;;;;;;;22.80;55.88;99860.97;6146355;23;20033;-80
2023/04/22 10:14:40;;;;;;;7.45;4.07;;;;;;;22.47;55.76;99869.19;6147215;23;20045;-80
2023/04/22 10:17:16;;;;;;;7.22;3.90;;;;;;;21.91;57.26;99857.09;6132701;23;20018;-81
2023/04/22 10:20:13;;;;;;;5.72;4.00;;;;;;;21.55;57.35;99863.88;6128832;23;20026;-84
2023/04/22 10:35:29;;;;;;;9.23;4.10;;;;;;;21.49;57.92;99881.63;6156784;23;20068;-80
2023/04/22 10:38:00;;;;;;;5.88;4.10;;;;;;;21.25;57.16;99870.41;6190372;23;20488;-80
2023/04/22 10:40:30;;;;;;;8.90;4.50;;;;;;;21.20;56.96;99880.94;6190891;23;20029;-79
2023/04/22 10:43:02;;;;;;;11.00;4.63;;;;;;;20.88;58.19;99888.66;6183472;23;20270;-80
2023/04/22 10:45:32;;;;;;;11.27;4.35;;;;;;;21.32;58.25;99886.16;6195535;23;20040;-79
2023/04/22 10:48:03;;;;;;;7.53;4.25;;;;;;;21.48;57.21;99877.34;6193820;23;20021;-80
2023/04/22 10:50:32;;;;;;;11.20;4.28;;;;;;;21.67;56.74;99869.88;6193755;23;20024;-79
2023/04/22 10:53:02;;;;;;;10.70;4.60;;;;;;;21.24;57.38;99873.28;6194015;23;20017;-80
2023/04/22 10:55:49;;;;;;;9.23;4.07;;;;;;;20.71;58.21;99880.69;6192300;23;20032;-79
2023/04/22 10:58:20;;;;;;;8.90;4.50;;;;;;;20.64;58.84;99885.34;6192055;23;20395;-78
2023/04/22 11:00:52;;;;;;;7.03;4.43;;;;;;;20.51;59.54;99888.31;6195941;23;20500;-79
2023/04/22 11:03:25;;;;;;;9.18;4.38;;;;;;;20.56;59.45;99888.41;6194790;23;20025;-79
2023/04/22 11:06:16;;;;;;;5.97;4.38;;;;;;;20.64;59.77;99889.84;6195239;23;20025;-78
2023/04/22 11:08:47;;;;;;;8.82;4.22;;;;;;;20.39;60.07;99887.53;6195361;23;20025;-81
2023/04/22 11:11:14;;;;;;;10.05;4.85;;;;;;;20.35;60.72;99879.22;6196949;23;20032;-80
2023/04/22 11:13:42;;;;;;;6.57;4.40;;;;;;;20.57;60.40;99879.38;6193967;23;20021;-79
2023/04/22 11:16:10;;;;;;;7.35;4.20;;;;;;;21.25;60.04;99877.56;6195956;23;20489;-81
2023/04/22 11:18:37;;;;;;;9.15;4.75;;;;;;;21.60;58.28;99861.28;6196569;23;20025;-79
2023/04/22 11:21:07;;;;;;;6.80;4.15;;;;;;;21.95;57.99;99871.53;6193491;23;20021;-78
2023/04/22 11:23:35;;;;;;;6.85;4.50;;;;;;;21.79;57.38;99857.22;6195919;23;20025;-81
2023/04/22 11:26:05;;;;;;;8.75;4.70;;;;;;;21.87;57.02;99856.81;6194799;23;20025;-79
2023/04/22 11:28:32;;;;;;;6.88;4.40;;;;;;;21.77;57.47;99865.47;6192140;23;20032;-79
2023/04/22 11:31:03;;;;;;;8.82;5.70;;;;;;;21.99;57.23;99870.81;6191077;23;20091;-78
2023/04/22 11:33:32;;;;;;;6.70;4.30;;;;;;;22.02;56.87;99858.88;6193319;23;20021;-78
2023/04/22 11:35:59;;;;;;;10.65;4.07;;;;;;;21.91;57.92;99865.91;6192984;23;20091;-78
2023/04/22 11:38:26;;;;;;;12.07;4.30;;;;;;;22.20;57.16;99861.22;6195888;23;20171;-79